sensor_id;sensor_type;location;lat;lon;timestamp;temperature;humidity
32536;DHT22;18974;50.838;4.636;2023-08-17T00:00:10;21.40;99.90
32536;DHT22;18974;50.838;4.636;2023-08-17T00:02:42;21.40;99.90
32536;DHT22;18974;50.838;4.636;2023-08-17T00:05:08;21.30;99.90
32536;DHT22;18974;50.838;4.636;2023-08-17T00:07:34;21.30;99.90
32536;DHT22;18974;50.838;4.636;2023-08-17T00:10:00;21.20;99.90
32536;DHT22;18974;50.838;4.636;2023-08-17T00:12:26;21.10;99.90
32536;DHT22;18974;50.838;4.636;2023-08-17T00:14:53;21.10;99.90
32536;DHT22;18974;50.838;4.636;2023-08-17T00:17:19;21.00;99.90
32536;DHT22;18974;50.838;4.636;2023-08-17T00:19:45;20.90;99.90
32536;DHT22;18974;50.838;4.636;2023-08-17T00:22:11;20.80;99.90
32536;DHT22;18974;50.838;4.636;2023-08-17T00:24:36;20.70;99.90
32536;DHT22;18974;50.838;4.636;2023-08-17T00:27:02;20.70;99.90
32536;DHT22;18974;50.838;4.636;2023-08-17T00:29:29;20.50;99.90
32536;DHT22;18974;50.838;4.636;2023-08-17T00:31:55;20.60;99.90
32536;DHT22;18974;50.838;4.636;2023-08-17T00:34:21;20.50;99.90
32536;DHT22;18974;50.838;4.636;2023-08-17T00:36:46;20.60;99.90
32536;DHT22;18974;50.838;4.636;2023-08-17T00:39:12;20.60;99.90
32536;DHT22;18974;50.838;4.636;2023-08-17T00:41:38;20.60;99.90
32536;DHT22;18974;50.838;4.636;2023-08-17T00:44:03;20.50;99.90
32536;DHT22;18974;50.838;4.636;2023-08-17T00:46:30;20.50;99.90
32536;DHT22;18974;50.838;4.636;2023-08-17T00:48:56;20.50;99.90
32536;DHT22;18974;50.838;4.636;2023-08-17T00:51:23;20.60;99.90
32536;DHT22;18974;50.838;4.636;2023-08-17T00:53:58;20.60;99.90
32536;DHT22;18974;50.838;4.636;2023-08-17T00:56:25;20.60;99.90
32536;DHT22;18974;50.838;4.636;2023-08-17T00:58:51;20.60;99.90
32536;DHT22;18974;50.838;4.636;2023-08-17T01:01:18;20.70;99.90
32536;DHT22;18974;50.838;4.636;2023-08-17T01:03:45;20.70;99.90
32536;DHT22;18974;50.838;4.636;2023-08-17T01:06:11;20.70;99.90
32536;DHT22;18974;50.838;4.636;2023-08-17T01:08:37;20.70;99.90
32536;DHT22;18974;50.838;4.636;2023-08-17T01:11:29;20.80;99.90
32536;DHT22;18974;50.838;4.636;2023-08-17T01:16:32;20.60;99.90
32536;DHT22;18974;50.838;4.636;2023-08-17T01:19:00;20.60;99.90
32536;DHT22;18974;50.838;4.636;2023-08-17T01:21:40;20.40;99.90
32536;DHT22;18974;50.838;4.636;2023-08-17T01:24:07;20.40;99.90
32536;DHT22;18974;50.838;4.636;2023-08-17T01:26:33;20.40;99.90
32536;DHT22;18974;50.838;4.636;2023-08-17T01:28:59;20.30;99.90
32536;DHT22;18974;50.838;4.636;2023-08-17T01:31:30;20.30;99.90
32536;DHT22;18974;50.838;4.636;2023-08-17T01:34:03;20.30;99.90
32536;DHT22;18974;50.838;4.636;2023-08-17T01:36:37;20.30;99.90
32536;DHT22;18974;50.838;4.636;2023-08-17T01:39:04;20.30;99.90
32536;DHT22;18974;50.838;4.636;2023-08-17T01:41:30;20.20;99.90
32536;DHT22;18974;50.838;4.636;2023-08-17T01:43:56;20.20;99.90
32536;DHT22;18974;50.838;4.636;2023-08-17T01:46:24;20.30;99.90
32536;DHT22;18974;50.838;4.636;2023-08-17T01:48:50;20.30;99.90
32536;DHT22;18974;50.838;4.636;2023-08-17T01:51:19;20.20;99.90
32536;DHT22;18974;50.838;4.636;2023-08-17T01:53:45;20.30;99.90
32536;DHT22;18974;50.838;4.636;2023-08-17T01:56:11;20.20;99.90
32536;DHT22;18974;50.838;4.636;2023-08-17T01:58:37;20.20;99.90
32536;DHT22;18974;50.838;4.636;2023-08-17T02:01:02;20.30;99.90
32536;DHT22;18974;50.838;4.636;2023-08-17T02:03:28;20.20;99.90
32536;DHT22;18974;50.838;4.636;2023-08-17T02:05:56;20.10;99.90
32536;DHT22;18974;50.838;4.636;2023-08-17T02:08:22;20.10;99.90
32536;DHT22;18974;50.838;4.636;2023-08-17T02:10:48;20.10;99.90
32536;DHT22;18974;50.838;4.636;2023-08-17T02:13:14;20.00;99.90
32536;DHT22;18974;50.838;4.636;2023-08-17T02:15:40;20.00;99.90
32536;DHT22;18974;50.838;4.636;2023-08-17T02:18:06;20.00;99.90
32536;DHT22;18974;50.838;4.636;2023-08-17T02:20:32;20.00;99.90
32536;DHT22;18974;50.838;4.636;2023-08-17T02:22:57;20.00;99.90
32536;DHT22;18974;50.838;4.636;2023-08-17T02:25:23;20.10;99.90
32536;DHT22;18974;50.838;4.636;2023-08-17T02:27:49;20.00;99.90
32536;DHT22;18974;50.838;4.636;2023-08-17T02:30:14;20.00;99.90
32536;DHT22;18974;50.838;4.636;2023-08-17T02:32:40;20.00;99.90
32536;DHT22;18974;50.838;4.636;2023-08-17T02:35:07;20.00;99.90
32536;DHT22;18974;50.838;4.636;2023-08-17T02:37:33;20.00;99.90
32536;DHT22;18974;50.838;4.636;2023-08-17T02:39:59;20.00;99.90
32536;DHT22;18974;50.838;4.636;2023-08-17T02:42:25;19.90;99.90
32536;DHT22;18974;50.838;4.636;2023-08-17T02:44:50;19.90;99.90
32536;DHT22;18974;50.838;4.636;2023-08-17T02:47:16;19.90;99.90
32536;DHT22;18974;50.838;4.636;2023-08-17T02:49:42;19.90;99.90
32536;DHT22;18974;50.838;4.636;2023-08-17T02:52:07;19.90;99.90
32536;DHT22;18974;50.838;4.636;2023-08-17T02:54:33;19.80;99.90
32536;DHT22;18974;50.838;4.636;2023-08-17T02:56:59;19.80;99.90
32536;DHT22;18974;50.838;4.636;2023-08-17T02:59:25;19.70;99.90
32536;DHT22;18974;50.838;4.636;2023-08-17T03:01:50;19.70;99.90
32536;DHT22;18974;50.838;4.636;2023-08-17T03:04:16;19.60;99.90
32536;DHT22;18974;50.838;4.636;2023-08-17T03:06:42;19.60;99.90
32536;DHT22;18974;50.838;4.636;2023-08-17T03:09:08;19.60;99.90
32536;DHT22;18974;50.838;4.636;2023-08-17T03:11:33;19.60;99.90
32536;DHT22;18974;50.838;4.636;2023-08-17T03:13:59;19.70;99.90
32536;DHT22;18974;50.838;4.636;2023-08-17T03:16:29;19.70;99.90
32536;DHT22;18974;50.838;4.636;2023-08-17T03:18:57;19.70;99.90
32536;DHT22;18974;50.838;4.636;2023-08-17T03:21:23;19.70;99.90
32536;DHT22;18974;50.838;4.636;2023-08-17T03:23:50;19.70;99.90
32536;DHT22;18974;50.838;4.636;2023-08-17T03:26:16;19.70;99.90
32536;DHT22;18974;50.838;4.636;2023-08-17T03:28:41;19.70;99.90
32536;DHT22;18974;50.838;4.636;2023-08-17T03:31:07;19.70;99.90
32536;DHT22;18974;50.838;4.636;2023-08-17T03:33:36;19.60;99.90
32536;DHT22;18974;50.838;4.636;2023-08-17T03:36:03;19.60;99.90
32536;DHT22;18974;50.838;4.636;2023-08-17T03:38:29;19.50;99.90
32536;DHT22;18974;50.838;4.636;2023-08-17T03:40:54;19.40;99.90
32536;DHT22;18974;50.838;4.636;2023-08-17T03:43:20;19.40;99.90
32536;DHT22;18974;50.838;4.636;2023-08-17T03:45:46;19.30;99.90
32536;DHT22;18974;50.838;4.636;2023-08-17T03:48:12;19.30;99.90
32536;DHT22;18974;50.838;4.636;2023-08-17T03:50:38;19.30;99.90
32536;DHT22;18974;50.838;4.636;2023-08-17T03:53:03;19.30;99.90
32536;DHT22;18974;50.838;4.636;2023-08-17T03:55:29;19.30;99.90
32536;DHT22;18974;50.838;4.636;2023-08-17T03:57:55;19.20;99.90
32536;DHT22;18974;50.838;4.636;2023-08-17T04:00:21;19.20;99.90
32536;DHT22;18974;50.838;4.636;2023-08-17T04:02:46;19.30;99.90
32536;DHT22;18974;50.838;4.636;2023-08-17T04:05:12;19.30;99.90
32536;DHT22;18974;50.838;4.636;2023-08-17T04:07:38;19.30;99.90
32536;DHT22;18974;50.838;4.636;2023-08-17T04:10:06;19.20;99.90
32536;DHT22;18974;50.838;4.636;2023-08-17T04:12:31;19.30;99.90
32536;DHT22;18974;50.838;4.636;2023-08-17T04:14:57;19.30;99.90
32536;DHT22;18974;50.838;4.636;2023-08-17T04:17:23;19.30;99.90
32536;DHT22;18974;50.838;4.636;2023-08-17T04:19:48;19.30;99.90
32536;DHT22;18974;50.838;4.636;2023-08-17T04:22:14;19.40;99.90
32536;DHT22;18974;50.838;4.636;2023-08-17T04:24:40;19.30;99.90
32536;DHT22;18974;50.838;4.636;2023-08-17T04:27:05;19.40;99.90
32536;DHT22;18974;50.838;4.636;2023-08-17T04:29:31;19.30;99.90
32536;DHT22;18974;50.838;4.636;2023-08-17T04:31:58;19.30;99.90
32536;DHT22;18974;50.838;4.636;2023-08-17T04:34:24;19.40;99.90
32536;DHT22;18974;50.838;4.636;2023-08-17T04:36:50;19.40;99.90
32536;DHT22;18974;50.838;4.636;2023-08-17T04:39:16;19.30;99.90
32536;DHT22;18974;50.838;4.636;2023-08-17T04:41:42;19.40;99.90
32536;DHT22;18974;50.838;4.636;2023-08-17T04:44:08;19.40;99.90
32536;DHT22;18974;50.838;4.636;2023-08-17T04:46:34;19.40;99.90
32536;DHT22;18974;50.838;4.636;2023-08-17T04:49:00;19.40;99.90
32536;DHT22;18974;50.838;4.636;2023-08-17T04:51:26;19.40;99.90
32536;DHT22;18974;50.838;4.636;2023-08-17T04:53:52;19.40;99.90
32536;DHT22;18974;50.838;4.636;2023-08-17T04:56:17;19.40;99.90
32536;DHT22;18974;50.838;4.636;2023-08-17T04:58:43;19.50;99.90
32536;DHT22;18974;50.838;4.636;2023-08-17T05:01:09;19.50;99.90
32536;DHT22;18974;50.838;4.636;2023-08-17T05:03:35;19.50;99.90
32536;DHT22;18974;50.838;4.636;2023-08-17T05:06:01;19.50;99.90
32536;DHT22;18974;50.838;4.636;2023-08-17T05:08:27;19.40;99.90
32536;DHT22;18974;50.838;4.636;2023-08-17T05:10:52;19.40;99.90
32536;DHT22;18974;50.838;4.636;2023-08-17T05:13:19;19.40;99.90
32536;DHT22;18974;50.838;4.636;2023-08-17T05:15:45;19.40;99.90
32536;DHT22;18974;50.838;4.636;2023-08-17T05:18:10;19.40;99.90
32536;DHT22;18974;50.838;4.636;2023-08-17T05:20:36;19.40;99.90
32536;DHT22;18974;50.838;4.636;2023-08-17T05:23:02;19.40;99.90
32536;DHT22;18974;50.838;4.636;2023-08-17T05:25:27;19.50;99.90
32536;DHT22;18974;50.838;4.636;2023-08-17T05:27:55;19.40;99.90
32536;DHT22;18974;50.838;4.636;2023-08-17T05:30:20;19.50;99.90
32536;DHT22;18974;50.838;4.636;2023-08-17T05:32:46;19.50;99.90
32536;DHT22;18974;50.838;4.636;2023-08-17T05:35:12;19.60;99.90
32536;DHT22;18974;50.838;4.636;2023-08-17T05:37:38;19.60;99.90
32536;DHT22;18974;50.838;4.636;2023-08-17T05:40:04;19.60;99.90
32536;DHT22;18974;50.838;4.636;2023-08-17T05:42:30;19.60;99.90
32536;DHT22;18974;50.838;4.636;2023-08-17T05:44:56;19.60;99.90
32536;DHT22;18974;50.838;4.636;2023-08-17T05:47:21;19.70;99.90
32536;DHT22;18974;50.838;4.636;2023-08-17T05:49:47;19.70;99.90
32536;DHT22;18974;50.838;4.636;2023-08-17T05:52:13;19.70;99.90
32536;DHT22;18974;50.838;4.636;2023-08-17T05:54:39;19.70;99.90
32536;DHT22;18974;50.838;4.636;2023-08-17T05:57:04;19.70;99.90
32536;DHT22;18974;50.838;4.636;2023-08-17T05:59:30;19.80;99.90
32536;DHT22;18974;50.838;4.636;2023-08-17T06:01:56;19.80;99.90
32536;DHT22;18974;50.838;4.636;2023-08-17T06:04:22;19.70;99.90
32536;DHT22;18974;50.838;4.636;2023-08-17T06:06:47;19.70;99.90
32536;DHT22;18974;50.838;4.636;2023-08-17T06:09:13;19.70;99.90
32536;DHT22;18974;50.838;4.636;2023-08-17T06:11:40;19.70;99.90
32536;DHT22;18974;50.838;4.636;2023-08-17T06:14:06;19.70;99.90
32536;DHT22;18974;50.838;4.636;2023-08-17T06:16:32;19.70;99.90
32536;DHT22;18974;50.838;4.636;2023-08-17T06:18:58;19.80;99.90
32536;DHT22;18974;50.838;4.636;2023-08-17T06:21:23;19.80;99.90
32536;DHT22;18974;50.838;4.636;2023-08-17T06:23:49;19.80;99.90
32536;DHT22;18974;50.838;4.636;2023-08-17T06:26:15;19.80;99.90
32536;DHT22;18974;50.838;4.636;2023-08-17T06:28:40;19.80;99.90
32536;DHT22;18974;50.838;4.636;2023-08-17T06:31:06;19.90;99.90
32536;DHT22;18974;50.838;4.636;2023-08-17T06:33:32;19.90;99.90
32536;DHT22;18974;50.838;4.636;2023-08-17T06:35:58;19.90;99.90
32536;DHT22;18974;50.838;4.636;2023-08-17T06:38:23;19.90;99.90
32536;DHT22;18974;50.838;4.636;2023-08-17T06:40:50;20.00;99.90
32536;DHT22;18974;50.838;4.636;2023-08-17T06:43:17;20.10;99.90
32536;DHT22;18974;50.838;4.636;2023-08-17T06:45:42;20.10;99.90
32536;DHT22;18974;50.838;4.636;2023-08-17T06:48:08;20.20;99.90
32536;DHT22;18974;50.838;4.636;2023-08-17T06:50:34;20.30;99.90
32536;DHT22;18974;50.838;4.636;2023-08-17T06:53:01;20.10;99.90
32536;DHT22;18974;50.838;4.636;2023-08-17T06:55:27;20.10;99.90
32536;DHT22;18974;50.838;4.636;2023-08-17T06:57:53;20.10;99.90
32536;DHT22;18974;50.838;4.636;2023-08-17T07:00:21;20.10;99.90
32536;DHT22;18974;50.838;4.636;2023-08-17T07:02:47;20.10;99.90
32536;DHT22;18974;50.838;4.636;2023-08-17T07:05:14;20.10;99.90
32536;DHT22;18974;50.838;4.636;2023-08-17T07:07:40;20.10;99.90
32536;DHT22;18974;50.838;4.636;2023-08-17T07:10:08;20.10;99.90
32536;DHT22;18974;50.838;4.636;2023-08-17T07:12:34;20.00;99.90
32536;DHT22;18974;50.838;4.636;2023-08-17T07:14:59;19.90;99.90
32536;DHT22;18974;50.838;4.636;2023-08-17T07:17:25;20.00;99.90
32536;DHT22;18974;50.838;4.636;2023-08-17T07:19:51;20.00;99.90
32536;DHT22;18974;50.838;4.636;2023-08-17T07:22:16;20.10;99.90
32536;DHT22;18974;50.838;4.636;2023-08-17T07:24:42;20.00;99.90
32536;DHT22;18974;50.838;4.636;2023-08-17T07:27:08;20.00;99.90
32536;DHT22;18974;50.838;4.636;2023-08-17T07:29:34;20.00;99.90
32536;DHT22;18974;50.838;4.636;2023-08-17T07:32:00;20.10;99.90
32536;DHT22;18974;50.838;4.636;2023-08-17T07:34:28;20.20;99.90
32536;DHT22;18974;50.838;4.636;2023-08-17T07:36:55;20.30;99.90
32536;DHT22;18974;50.838;4.636;2023-08-17T07:39:21;20.30;99.90
32536;DHT22;18974;50.838;4.636;2023-08-17T07:41:46;20.20;99.90
32536;DHT22;18974;50.838;4.636;2023-08-17T07:44:12;20.40;99.90
32536;DHT22;18974;50.838;4.636;2023-08-17T07:46:38;20.50;99.90
32536;DHT22;18974;50.838;4.636;2023-08-17T07:49:04;20.60;99.90
32536;DHT22;18974;50.838;4.636;2023-08-17T07:51:30;20.70;99.90
32536;DHT22;18974;50.838;4.636;2023-08-17T07:53:57;20.70;99.90
32536;DHT22;18974;50.838;4.636;2023-08-17T07:56:23;20.70;99.90
32536;DHT22;18974;50.838;4.636;2023-08-17T07:58:49;20.70;99.90
32536;DHT22;18974;50.838;4.636;2023-08-17T08:01:14;20.90;99.90
32536;DHT22;18974;50.838;4.636;2023-08-17T08:03:40;21.00;99.90
32536;DHT22;18974;50.838;4.636;2023-08-17T08:06:06;21.10;99.90
32536;DHT22;18974;50.838;4.636;2023-08-17T08:08:32;21.30;99.90
32536;DHT22;18974;50.838;4.636;2023-08-17T08:10:58;21.60;99.90
32536;DHT22;18974;50.838;4.636;2023-08-17T08:13:24;21.70;99.90
32536;DHT22;18974;50.838;4.636;2023-08-17T08:15:49;21.80;99.90
32536;DHT22;18974;50.838;4.636;2023-08-17T08:18:15;22.00;99.90
32536;DHT22;18974;50.838;4.636;2023-08-17T08:20:41;22.00;99.90
32536;DHT22;18974;50.838;4.636;2023-08-17T08:23:07;21.90;99.90
32536;DHT22;18974;50.838;4.636;2023-08-17T08:25:32;22.00;99.90
32536;DHT22;18974;50.838;4.636;2023-08-17T08:27:58;22.20;99.90
32536;DHT22;18974;50.838;4.636;2023-08-17T08:30:24;22.30;99.90
32536;DHT22;18974;50.838;4.636;2023-08-17T08:32:51;22.50;99.90
32536;DHT22;18974;50.838;4.636;2023-08-17T08:35:17;22.50;99.90
32536;DHT22;18974;50.838;4.636;2023-08-17T08:37:42;22.50;99.90
32536;DHT22;18974;50.838;4.636;2023-08-17T08:40:11;22.30;99.90
32536;DHT22;18974;50.838;4.636;2023-08-17T08:42:38;22.40;99.90
32536;DHT22;18974;50.838;4.636;2023-08-17T08:45:04;22.70;99.90
32536;DHT22;18974;50.838;4.636;2023-08-17T08:47:31;23.00;99.90
32536;DHT22;18974;50.838;4.636;2023-08-17T08:50:01;23.30;99.90
32536;DHT22;18974;50.838;4.636;2023-08-17T08:52:33;23.40;99.90
32536;DHT22;18974;50.838;4.636;2023-08-17T08:55:08;23.40;99.90
32536;DHT22;18974;50.838;4.636;2023-08-17T08:57:35;23.30;99.90
32536;DHT22;18974;50.838;4.636;2023-08-17T09:00:02;23.40;99.90
32536;DHT22;18974;50.838;4.636;2023-08-17T09:02:28;23.20;99.90
32536;DHT22;18974;50.838;4.636;2023-08-17T09:04:54;23.00;99.90
32536;DHT22;18974;50.838;4.636;2023-08-17T09:07:21;23.10;99.90
32536;DHT22;18974;50.838;4.636;2023-08-17T09:09:48;23.30;99.90
32536;DHT22;18974;50.838;4.636;2023-08-17T09:12:13;23.60;99.90
32536;DHT22;18974;50.838;4.636;2023-08-17T09:14:39;23.60;99.90
32536;DHT22;18974;50.838;4.636;2023-08-17T09:17:07;23.60;99.90
32536;DHT22;18974;50.838;4.636;2023-08-17T09:19:33;23.50;99.90
32536;DHT22;18974;50.838;4.636;2023-08-17T09:22:00;23.40;99.90
32536;DHT22;18974;50.838;4.636;2023-08-17T09:24:36;23.50;99.90
32536;DHT22;18974;50.838;4.636;2023-08-17T09:27:03;23.40;99.90
32536;DHT22;18974;50.838;4.636;2023-08-17T09:29:29;23.40;99.90
32536;DHT22;18974;50.838;4.636;2023-08-17T09:32:07;23.40;99.90
32536;DHT22;18974;50.838;4.636;2023-08-17T09:34:32;23.40;99.90
32536;DHT22;18974;50.838;4.636;2023-08-17T09:37:05;23.70;99.90
32536;DHT22;18974;50.838;4.636;2023-08-17T09:39:33;23.90;99.90
32536;DHT22;18974;50.838;4.636;2023-08-17T09:42:00;24.10;99.90
32536;DHT22;18974;50.838;4.636;2023-08-17T09:44:26;23.90;99.90
32536;DHT22;18974;50.838;4.636;2023-08-17T09:46:55;23.80;99.90
32536;DHT22;18974;50.838;4.636;2023-08-17T09:49:23;23.90;99.90
32536;DHT22;18974;50.838;4.636;2023-08-17T09:51:50;23.80;99.90
32536;DHT22;18974;50.838;4.636;2023-08-17T09:54:24;23.80;99.90
32536;DHT22;18974;50.838;4.636;2023-08-17T09:56:53;23.70;99.90
32536;DHT22;18974;50.838;4.636;2023-08-17T09:59:19;23.70;99.90
32536;DHT22;18974;50.838;4.636;2023-08-17T10:01:49;23.70;99.90
32536;DHT22;18974;50.838;4.636;2023-08-17T10:04:21;23.60;99.90
32536;DHT22;18974;50.838;4.636;2023-08-17T10:07:00;23.40;99.90
32536;DHT22;18974;50.838;4.636;2023-08-17T10:09:31;23.50;99.90
32536;DHT22;18974;50.838;4.636;2023-08-17T10:11:58;23.50;99.90
32536;DHT22;18974;50.838;4.636;2023-08-17T10:14:29;23.50;99.90
32536;DHT22;18974;50.838;4.636;2023-08-17T10:17:08;23.70;99.90
32536;DHT22;18974;50.838;4.636;2023-08-17T10:19:50;23.80;99.90
32536;DHT22;18974;50.838;4.636;2023-08-17T10:22:42;23.80;99.90
32536;DHT22;18974;50.838;4.636;2023-08-17T10:25:11;24.10;99.90
32536;DHT22;18974;50.838;4.636;2023-08-17T10:27:41;24.30;99.90
32536;DHT22;18974;50.838;4.636;2023-08-17T10:30:11;24.40;99.90
32536;DHT22;18974;50.838;4.636;2023-08-17T10:32:37;24.60;99.90
32536;DHT22;18974;50.838;4.636;2023-08-17T10:35:04;24.60;99.90
32536;DHT22;18974;50.838;4.636;2023-08-17T10:37:31;24.50;99.90
32536;DHT22;18974;50.838;4.636;2023-08-17T10:39:57;24.50;99.90
32536;DHT22;18974;50.838;4.636;2023-08-17T10:42:33;24.40;99.90
32536;DHT22;18974;50.838;4.636;2023-08-17T10:45:01;24.40;99.90
32536;DHT22;18974;50.838;4.636;2023-08-17T10:47:32;24.30;99.90
32536;DHT22;18974;50.838;4.636;2023-08-17T10:50:04;24.50;99.90
32536;DHT22;18974;50.838;4.636;2023-08-17T10:52:32;24.60;99.90
32536;DHT22;18974;50.838;4.636;2023-08-17T10:55:03;24.80;99.90
32536;DHT22;18974;50.838;4.636;2023-08-17T10:57:34;24.90;99.90
32536;DHT22;18974;50.838;4.636;2023-08-17T11:00:15;25.00;99.90
32536;DHT22;18974;50.838;4.636;2023-08-17T11:02:55;24.90;99.90
32536;DHT22;18974;50.838;4.636;2023-08-17T11:05:41;24.90;99.90
32536;DHT22;18974;50.838;4.636;2023-08-17T11:08:09;24.70;99.90
32536;DHT22;18974;50.838;4.636;2023-08-17T11:10:36;24.60;99.90
32536;DHT22;18974;50.838;4.636;2023-08-17T11:13:03;24.60;99.90
32536;DHT22;18974;50.838;4.636;2023-08-17T11:15:41;24.60;99.90
32536;DHT22;18974;50.838;4.636;2023-08-17T11:18:11;24.70;99.90
32536;DHT22;18974;50.838;4.636;2023-08-17T11:20:39;24.90;99.90
32536;DHT22;18974;50.838;4.636;2023-08-17T11:23:06;25.10;99.90
32536;DHT22;18974;50.838;4.636;2023-08-17T11:25:33;25.20;99.90
32536;DHT22;18974;50.838;4.636;2023-08-17T11:28:02;25.30;99.90
32536;DHT22;18974;50.838;4.636;2023-08-17T11:30:28;25.20;99.90
32536;DHT22;18974;50.838;4.636;2023-08-17T11:32:56;25.30;99.90
32536;DHT22;18974;50.838;4.636;2023-08-17T11:35:22;25.40;99.90
32536;DHT22;18974;50.838;4.636;2023-08-17T11:37:48;25.30;99.90
32536;DHT22;18974;50.838;4.636;2023-08-17T11:40:15;25.20;99.90
32536;DHT22;18974;50.838;4.636;2023-08-17T11:42:42;25.00;99.90
32536;DHT22;18974;50.838;4.636;2023-08-17T11:45:08;24.80;99.90
32536;DHT22;18974;50.838;4.636;2023-08-17T11:47:41;24.70;99.90
32536;DHT22;18974;50.838;4.636;2023-08-17T11:50:10;24.60;99.90
32536;DHT22;18974;50.838;4.636;2023-08-17T11:52:36;24.60;99.90
32536;DHT22;18974;50.838;4.636;2023-08-17T11:55:06;24.50;99.90
32536;DHT22;18974;50.838;4.636;2023-08-17T11:57:33;24.40;99.90
32536;DHT22;18974;50.838;4.636;2023-08-17T12:00:00;24.30;99.90
32536;DHT22;18974;50.838;4.636;2023-08-17T12:02:27;24.40;99.90
32536;DHT22;18974;50.838;4.636;2023-08-17T12:04:55;24.40;99.90
32536;DHT22;18974;50.838;4.636;2023-08-17T12:07:25;24.20;99.90
32536;DHT22;18974;50.838;4.636;2023-08-17T12:09:51;24.20;99.90
32536;DHT22;18974;50.838;4.636;2023-08-17T12:12:22;24.20;99.90
32536;DHT22;18974;50.838;4.636;2023-08-17T12:14:50;24.20;99.90
32536;DHT22;18974;50.838;4.636;2023-08-17T12:17:20;24.10;99.90
32536;DHT22;18974;50.838;4.636;2023-08-17T12:19:49;24.10;99.90
32536;DHT22;18974;50.838;4.636;2023-08-17T12:22:16;24.20;99.90
32536;DHT22;18974;50.838;4.636;2023-08-17T12:24:43;24.30;99.90
32536;DHT22;18974;50.838;4.636;2023-08-17T12:27:09;24.20;99.90
32536;DHT22;18974;50.838;4.636;2023-08-17T12:29:48;24.20;99.90
32536;DHT22;18974;50.838;4.636;2023-08-17T12:32:15;24.30;99.90
32536;DHT22;18974;50.838;4.636;2023-08-17T12:34:41;24.40;99.90
32536;DHT22;18974;50.838;4.636;2023-08-17T12:37:11;24.50;99.90
32536;DHT22;18974;50.838;4.636;2023-08-17T12:39:37;24.60;99.90
32536;DHT22;18974;50.838;4.636;2023-08-17T12:42:04;24.60;99.90
32536;DHT22;18974;50.838;4.636;2023-08-17T12:44:30;24.50;99.90
32536;DHT22;18974;50.838;4.636;2023-08-17T12:46:56;24.50;99.90
32536;DHT22;18974;50.838;4.636;2023-08-17T12:49:23;24.50;99.90
32536;DHT22;18974;50.838;4.636;2023-08-17T12:51:49;24.50;99.90
32536;DHT22;18974;50.838;4.636;2023-08-17T12:54:15;24.60;99.90
32536;DHT22;18974;50.838;4.636;2023-08-17T12:56:40;24.50;99.90
32536;DHT22;18974;50.838;4.636;2023-08-17T12:59:06;24.50;99.90
32536;DHT22;18974;50.838;4.636;2023-08-17T13:01:32;24.60;99.90
32536;DHT22;18974;50.838;4.636;2023-08-17T13:03:58;24.60;99.90
32536;DHT22;18974;50.838;4.636;2023-08-17T13:06:24;24.60;99.90
32536;DHT22;18974;50.838;4.636;2023-08-17T13:08:50;24.60;99.90
32536;DHT22;18974;50.838;4.636;2023-08-17T13:11:16;24.60;99.90
32536;DHT22;18974;50.838;4.636;2023-08-17T13:13:41;24.40;99.90
32536;DHT22;18974;50.838;4.636;2023-08-17T13:16:07;24.40;99.90
32536;DHT22;18974;50.838;4.636;2023-08-17T13:18:33;24.50;99.90
32536;DHT22;18974;50.838;4.636;2023-08-17T13:20:58;24.40;99.90
32536;DHT22;18974;50.838;4.636;2023-08-17T13:23:24;24.10;99.90
32536;DHT22;18974;50.838;4.636;2023-08-17T13:25:50;24.20;99.90
32536;DHT22;18974;50.838;4.636;2023-08-17T13:28:15;24.20;99.90
32536;DHT22;18974;50.838;4.636;2023-08-17T13:30:41;24.20;99.90
32536;DHT22;18974;50.838;4.636;2023-08-17T13:33:07;24.20;99.90
32536;DHT22;18974;50.838;4.636;2023-08-17T13:35:33;24.20;99.90
32536;DHT22;18974;50.838;4.636;2023-08-17T13:37:59;24.20;99.90
32536;DHT22;18974;50.838;4.636;2023-08-17T13:40:25;24.30;99.90
32536;DHT22;18974;50.838;4.636;2023-08-17T13:42:50;24.40;99.90
32536;DHT22;18974;50.838;4.636;2023-08-17T13:45:16;24.40;99.90
32536;DHT22;18974;50.838;4.636;2023-08-17T13:47:42;24.40;99.90
32536;DHT22;18974;50.838;4.636;2023-08-17T13:50:08;24.40;99.90
32536;DHT22;18974;50.838;4.636;2023-08-17T13:52:34;24.40;99.90
32536;DHT22;18974;50.838;4.636;2023-08-17T13:54:59;24.50;99.90
32536;DHT22;18974;50.838;4.636;2023-08-17T13:57:25;24.60;99.90
32536;DHT22;18974;50.838;4.636;2023-08-17T13:59:51;24.70;99.90
32536;DHT22;18974;50.838;4.636;2023-08-17T14:02:18;24.60;99.90
32536;DHT22;18974;50.838;4.636;2023-08-17T14:04:44;24.40;99.90
32536;DHT22;18974;50.838;4.636;2023-08-17T14:07:09;24.30;99.90
32536;DHT22;18974;50.838;4.636;2023-08-17T14:09:35;24.30;99.90
32536;DHT22;18974;50.838;4.636;2023-08-17T14:12:01;24.00;99.90
32536;DHT22;18974;50.838;4.636;2023-08-17T14:14:27;23.90;99.90
32536;DHT22;18974;50.838;4.636;2023-08-17T14:16:52;23.90;99.90
32536;DHT22;18974;50.838;4.636;2023-08-17T14:19:18;23.90;99.90
32536;DHT22;18974;50.838;4.636;2023-08-17T14:21:44;23.90;99.90
32536;DHT22;18974;50.838;4.636;2023-08-17T14:24:09;23.70;99.90
32536;DHT22;18974;50.838;4.636;2023-08-17T14:26:36;23.80;99.90
32536;DHT22;18974;50.838;4.636;2023-08-17T14:29:01;23.90;99.90
32536;DHT22;18974;50.838;4.636;2023-08-17T14:31:27;23.90;99.90
32536;DHT22;18974;50.838;4.636;2023-08-17T14:33:54;24.10;99.90
32536;DHT22;18974;50.838;4.636;2023-08-17T14:36:20;24.20;99.90
32536;DHT22;18974;50.838;4.636;2023-08-17T14:38:46;24.40;99.90
32536;DHT22;18974;50.838;4.636;2023-08-17T14:41:12;24.60;99.90
32536;DHT22;18974;50.838;4.636;2023-08-17T14:43:37;24.70;99.90
32536;DHT22;18974;50.838;4.636;2023-08-17T14:46:03;24.80;99.90
32536;DHT22;18974;50.838;4.636;2023-08-17T14:48:29;24.90;99.90
32536;DHT22;18974;50.838;4.636;2023-08-17T14:50:55;24.90;99.90
32536;DHT22;18974;50.838;4.636;2023-08-17T14:53:21;24.90;99.90
32536;DHT22;18974;50.838;4.636;2023-08-17T14:55:47;25.10;99.90
32536;DHT22;18974;50.838;4.636;2023-08-17T14:58:12;25.10;99.90
32536;DHT22;18974;50.838;4.636;2023-08-17T15:00:39;25.20;99.90
32536;DHT22;18974;50.838;4.636;2023-08-17T15:03:05;25.40;99.90
32536;DHT22;18974;50.838;4.636;2023-08-17T15:05:30;25.40;99.90
32536;DHT22;18974;50.838;4.636;2023-08-17T15:07:56;25.40;99.90
32536;DHT22;18974;50.838;4.636;2023-08-17T15:10:22;25.40;99.90
32536;DHT22;18974;50.838;4.636;2023-08-17T15:12:48;25.40;99.90
32536;DHT22;18974;50.838;4.636;2023-08-17T15:15:14;25.50;99.90
32536;DHT22;18974;50.838;4.636;2023-08-17T15:17:40;25.50;99.90
32536;DHT22;18974;50.838;4.636;2023-08-17T15:20:06;25.40;99.90
32536;DHT22;18974;50.838;4.636;2023-08-17T15:22:32;25.30;99.90
32536;DHT22;18974;50.838;4.636;2023-08-17T15:24:57;25.20;99.90
32536;DHT22;18974;50.838;4.636;2023-08-17T15:27:23;25.10;99.90
32536;DHT22;18974;50.838;4.636;2023-08-17T15:29:49;25.00;99.90